Terminal Aerodrome Forecast
Issued by NWS Louisville, KY

Home | Current Version | Previous Version | Text Only | Print | Product List | Glossary On
Versions: 1 2 3 4 5 6 7 8 9 10 11 12 13 14
000
FTUS43 KLMK 120531
TAFLEX
TAF
KLEX 120531Z 1206/1306 26012G22KT P6SM BKN060
     FM120900 29013G26KT P6SM -SHSN OVC015
     FM121500 31015G28KT P6SM BKN035
     FM130000 29008KT P6SM SCT200=

USA.gov is the U.S. government's official web portal to all federal, state and local government web resources and services.